createdAt,value
2023-03-29T00:00:19.753Z,98781.94
2023-03-29T00:01:35.765Z,98781.47
2023-03-29T00:02:39.816Z,98793.47
2023-03-29T00:03:46.040Z,98783.91
2023-03-29T00:04:48.894Z,98795.19
2023-03-29T00:05:57.749Z,98791.78
2023-03-29T00:07:04.612Z,98792.50
2023-03-29T00:08:08.966Z,98793.25
2023-03-29T00:09:11.672Z,98783.19
2023-03-29T00:10:14.575Z,98787.09
2023-03-29T00:11:18.031Z,98790.78
2023-03-29T00:12:20.721Z,98792.00
2023-03-29T00:13:23.596Z,98783.91
2023-03-29T00:14:27.010Z,98792.00
2023-03-29T00:15:29.784Z,98797.16
2023-03-29T00:16:32.601Z,98794.97
2023-03-29T00:17:35.486Z,98793.72
2023-03-29T00:18:38.339Z,98788.56
2023-03-29T00:19:44.397Z,98788.06
2023-03-29T00:20:47.164Z,98788.06
2023-03-29T00:21:50.140Z,98793.97
2023-03-29T00:22:52.948Z,98779.97
2023-03-29T00:23:57.224Z,98789.31
2023-03-29T00:24:59.948Z,98780.47
2023-03-29T00:26:03.841Z,98799.84
2023-03-29T00:27:07.916Z,98796.87
2023-03-29T00:28:10.682Z,98795.41
2023-03-29T00:29:13.842Z,98796.87
2023-03-29T00:30:16.979Z,98797.84
2023-03-29T00:31:19.760Z,98795.66
2023-03-29T00:32:22.795Z,98797.59
2023-03-29T00:33:25.693Z,98798.34
2023-03-29T00:34:31.949Z,98798.78
2023-03-29T00:35:35.178Z,98793.62
2023-03-29T00:36:40.662Z,98796.06
2023-03-29T00:37:43.539Z,98788.94
2023-03-29T00:38:46.371Z,98786.25
2023-03-29T00:39:49.294Z,98802.59
2023-03-29T00:40:52.339Z,98798.66
2023-03-29T00:41:55.403Z,98800.88
2023-03-29T00:42:58.365Z,98801.84
2023-03-29T00:44:05.871Z,98802.59
2023-03-29T00:45:30.706Z,98788.13
2023-03-29T00:46:35.298Z,98790.75
2023-03-29T00:47:50.885Z,98788.00
2023-03-29T00:48:57.178Z,98786.81
2023-03-29T00:50:08.877Z,98796.09
2023-03-29T00:51:14.612Z,98787.75
2023-03-29T00:52:21.551Z,98789.72
2023-03-29T00:53:34.008Z,98790.66
2023-03-29T00:54:38.200Z,98788.91
2023-03-29T00:55:44.053Z,98788.38
2023-03-29T00:56:51.388Z,98799.38
2023-03-29T00:57:56.493Z,98796.75
2023-03-29T00:59:16.304Z,98787.91
2023-03-29T01:00:23.122Z,98783.25
2023-03-29T01:01:34.470Z,98783.25
2023-03-29T01:02:40.293Z,98779.75
2023-03-29T01:03:54.647Z,98782.97
2023-03-29T01:05:07.314Z,98780.22
2023-03-29T01:06:12.431Z,98777.97
2023-03-29T01:07:23.825Z,98781.63
2023-03-29T01:08:32.889Z,98783.63
2023-03-29T01:09:39.200Z,98772.34
2023-03-29T01:10:47.974Z,98774.75
2023-03-29T01:11:56.522Z,98768.66
2023-03-29T01:13:06.809Z,98766.97
2023-03-29T01:14:38.635Z,98767.91
2023-03-29T01:15:45.302Z,98768.13
2023-03-29T01:16:48.313Z,98769.59
2023-03-29T01:17:53.926Z,98760.78
2023-03-29T01:19:00.542Z,98757.09
2023-03-29T01:20:22.499Z,98767.38
2023-03-29T01:21:40.076Z,98756.09
2023-03-29T01:23:07.595Z,98754.91
2023-03-29T01:24:38.324Z,98757.31
2023-03-29T01:25:48.367Z,98756.66
2023-03-29T01:26:54.241Z,98750.00
2023-03-29T01:28:04.042Z,98758.09
2023-03-29T01:29:13.176Z,98759.59
2023-03-29T01:30:31.054Z,98749.81
2023-03-29T01:31:40.308Z,98744.66
2023-03-29T01:33:07.850Z,98743.78
2023-03-29T01:34:25.893Z,98747.19
2023-03-29T01:35:34.482Z,98744.50
2023-03-29T01:36:55.144Z,98742.38
2023-03-29T01:38:13.693Z,98750.22
2023-03-29T01:39:19.376Z,98745.78
2023-03-29T01:40:23.076Z,98751.16
2023-03-29T01:41:51.524Z,98750.63
2023-03-29T01:43:15.080Z,98748.22
2023-03-29T01:44:25.219Z,98746.69
2023-03-29T01:45:31.230Z,98742.28
2023-03-29T01:46:39.925Z,98741.03
2023-03-29T01:48:02.809Z,98746.91
2023-03-29T01:49:23.273Z,98747.81
2023-03-29T01:50:43.151Z,98741.50
2023-03-29T01:52:01.070Z,98746.81
2023-03-29T01:53:25.060Z,98749.00
2023-03-29T01:55:00.676Z,98763.63
2023-03-29T01:56:23.128Z,98759.63
2023-03-29T01:57:26.985Z,98756.00
2023-03-29T01:58:34.631Z,98746.75
2023-03-29T01:59:42.377Z,98759.69
2023-03-29T02:00:46.196Z,98757.19
2023-03-29T02:01:54.712Z,98763.06
2023-03-29T02:03:03.532Z,98763.56
2023-03-29T02:04:13.544Z,98766.63
2023-03-29T02:05:18.092Z,98767.78
2023-03-29T02:06:25.538Z,98773.41
2023-03-29T02:07:37.656Z,98766.47
2023-03-29T02:08:42.457Z,98764.75
2023-03-29T02:09:47.319Z,98763.72
2023-03-29T02:10:52.107Z,98762.09
2023-03-29T02:12:01.041Z,98762.09
2023-03-29T02:13:05.738Z,98761.03
2023-03-29T02:14:10.437Z,98766.37
2023-03-29T02:15:16.382Z,98767.75
2023-03-29T02:16:20.511Z,98763.63
2023-03-29T02:17:26.206Z,98766.81
2023-03-29T02:18:30.511Z,98758.69
2023-03-29T02:19:34.645Z,98765.97
2023-03-29T02:20:41.159Z,98755.62
2023-03-29T02:22:06.903Z,98757.06
2023-03-29T02:23:14.603Z,98763.38
2023-03-29T02:24:20.465Z,98755.41
2023-03-29T02:25:24.832Z,98759.28
2023-03-29T02:26:29.512Z,98756.25
2023-03-29T02:27:32.391Z,98758.31
2023-03-29T02:28:36.480Z,98758.00
2023-03-29T02:29:39.584Z,98759.69
2023-03-29T02:30:57.981Z,98759.69
2023-03-29T02:32:11.381Z,98750.66
2023-03-29T02:33:19.528Z,98751.41
2023-03-29T02:34:39.144Z,98749.25
2023-03-29T02:36:17.938Z,98751.34
2023-03-29T02:37:22.907Z,98745.91
2023-03-29T02:38:28.053Z,98751.53
2023-03-29T02:39:34.921Z,98751.97
2023-03-29T02:40:42.200Z,98750.50
2023-03-29T02:41:49.866Z,98757.69
2023-03-29T02:42:55.945Z,98756.41
2023-03-29T02:44:02.453Z,98762.53
2023-03-29T02:45:08.055Z,98756.41
2023-03-29T02:46:12.858Z,98758.63
2023-03-29T02:47:38.480Z,98764.22
2023-03-29T02:48:42.522Z,98757.88
2023-03-29T02:49:45.888Z,98755.69
2023-03-29T02:50:54.259Z,98761.16
2023-03-29T02:52:05.353Z,98762.06
2023-03-29T02:53:17.624Z,98763.75
2023-03-29T02:54:26.353Z,98765.38
2023-03-29T02:55:35.022Z,98764.38
2023-03-29T02:56:48.018Z,98762.69
2023-03-29T02:57:50.908Z,98765.38
2023-03-29T02:58:53.915Z,98767.78
2023-03-29T02:59:59.117Z,98764.56
2023-03-29T03:01:06.084Z,98773.16
2023-03-29T03:02:09.036Z,98774.09
2023-03-29T03:03:13.374Z,98775.25
2023-03-29T03:04:18.784Z,98771.28
2023-03-29T03:05:21.879Z,98772.59
2023-03-29T03:06:25.387Z,98778.25
2023-03-29T03:07:28.929Z,98769.38
2023-03-29T03:08:32.444Z,98780.81
2023-03-29T03:09:35.800Z,98777.66
2023-03-29T03:10:39.262Z,98782.28
2023-03-29T03:11:42.529Z,98776.47
2023-03-29T03:12:45.515Z,98774.06
2023-03-29T03:13:48.404Z,98775.50
2023-03-29T03:14:51.267Z,98777.66
2023-03-29T03:15:54.382Z,98777.19
2023-03-29T03:16:58.101Z,98776.50
2023-03-29T03:18:00.999Z,98774.03
2023-03-29T03:19:04.365Z,98773.97
2023-03-29T03:20:14.841Z,98771.38
2023-03-29T03:21:19.197Z,98778.84
2023-03-29T03:22:23.024Z,98767.19
2023-03-29T03:23:25.944Z,98776.59
2023-03-29T03:24:28.981Z,98777.81
2023-03-29T03:25:32.614Z,98777.44
2023-03-29T03:26:36.305Z,98776.97
2023-03-29T03:27:40.050Z,98784.16
2023-03-29T03:28:43.435Z,98783.34
2023-03-29T03:29:46.520Z,98779.09
2023-03-29T03:30:50.117Z,98780.87
2023-03-29T03:31:54.032Z,98782.19
2023-03-29T03:32:57.670Z,98788.47
2023-03-29T03:34:00.567Z,98788.69
2023-03-29T03:35:05.873Z,98786.97
2023-03-29T03:36:10.482Z,98788.47
2023-03-29T03:37:13.591Z,98782.81
2023-03-29T03:38:16.874Z,98786.41
2023-03-29T03:39:19.901Z,98781.50
2023-03-29T03:40:22.909Z,98777.59
2023-03-29T03:41:26.599Z,98783.72
2023-03-29T03:42:30.167Z,98781.72
2023-03-29T03:43:34.096Z,98782.66
2023-03-29T03:44:38.210Z,98783.44
2023-03-29T03:45:43.274Z,98780.50
2023-03-29T03:46:46.569Z,98783.66
2023-03-29T03:47:51.429Z,98783.13
2023-03-29T03:48:54.518Z,98791.94
2023-03-29T03:49:57.706Z,98782.66
2023-03-29T03:51:00.943Z,98788.81
2023-03-29T03:52:04.353Z,98792.72
2023-03-29T03:53:07.554Z,98790.50
2023-03-29T03:54:10.511Z,98795.47
2023-03-29T03:55:14.583Z,98794.53
2023-03-29T03:56:18.006Z,98793.25
2023-03-29T03:57:21.096Z,98791.56
2023-03-29T03:58:24.640Z,98786.41
2023-03-29T03:59:27.648Z,98788.13
2023-03-29T04:00:30.688Z,98786.94
2023-03-29T04:01:35.729Z,98790.34
2023-03-29T04:02:39.071Z,98791.63
2023-03-29T04:03:42.146Z,98790.34
2023-03-29T04:04:45.295Z,98791.84
2023-03-29T04:05:48.939Z,98788.06
2023-03-29T04:06:51.966Z,98788.13
2023-03-29T04:07:56.558Z,98792.94
2023-03-29T04:08:59.991Z,98792.34
2023-03-29T04:10:03.405Z,98797.97
2023-03-29T04:11:07.903Z,98797.72
2023-03-29T04:12:12.132Z,98797.34
2023-03-29T04:13:15.329Z,98798.28
2023-03-29T04:14:18.560Z,98799.69
2023-03-29T04:15:21.916Z,98798.16
2023-03-29T04:16:25.197Z,98796.16
2023-03-29T04:17:28.331Z,98797.09
2023-03-29T04:18:31.698Z,98795.59
2023-03-29T04:19:35.005Z,98791.72
2023-03-29T04:20:39.358Z,98797.37
2023-03-29T04:21:43.330Z,98790.28
2023-03-29T04:22:46.336Z,98795.41
2023-03-29T04:23:49.346Z,98792.91
2023-03-29T04:24:52.551Z,98798.16
2023-03-29T04:25:57.004Z,98793.69
2023-03-29T04:27:00.203Z,98792.09
2023-03-29T04:28:03.211Z,98793.56
2023-03-29T04:29:06.182Z,98787.53
2023-03-29T04:30:10.138Z,98796.06
2023-03-29T04:31:15.348Z,98786.25
2023-03-29T04:32:18.511Z,98789.22
2023-03-29T04:33:21.618Z,98794.59
2023-03-29T04:34:30.212Z,98790.25
2023-03-29T04:35:33.686Z,98796.00
2023-03-29T04:36:36.889Z,98800.97
2023-03-29T04:37:40.693Z,98796.06
2023-03-29T04:38:47.370Z,98800.50
2023-03-29T04:39:52.850Z,98798.00
2023-03-29T04:40:56.250Z,98800.25
2023-03-29T04:41:59.088Z,98807.97
2023-03-29T04:43:02.597Z,98802.34
2023-03-29T04:44:07.324Z,98808.22
2023-03-29T04:45:11.102Z,98807.19
2023-03-29T04:46:15.253Z,98804.25
2023-03-29T04:47:18.707Z,98809.88
2023-03-29T04:48:22.604Z,98805.47
2023-03-29T04:49:26.180Z,98807.62
2023-03-29T04:50:29.192Z,98806.16
2023-03-29T04:51:33.573Z,98804.69
2023-03-29T04:52:36.473Z,98814.25
2023-03-29T04:53:39.394Z,98813.25
2023-03-29T04:54:42.451Z,98819.37
2023-03-29T04:55:47.404Z,98823.75
2023-03-29T04:56:52.636Z,98818.09
2023-03-29T04:57:55.891Z,98817.38
2023-03-29T04:58:59.004Z,98816.62
2023-03-29T05:00:01.956Z,98822.53
2023-03-29T05:01:06.109Z,98815.47
2023-03-29T05:02:09.240Z,98810.56
2023-03-29T05:03:14.804Z,98810.81
2023-03-29T05:04:18.689Z,98813.03
2023-03-29T05:05:21.651Z,98811.06
2023-03-29T05:06:25.049Z,98817.47
2023-03-29T05:07:28.134Z,98822.09
2023-03-29T05:08:31.080Z,98826.81
2023-03-29T05:09:35.919Z,98817.50
2023-03-29T05:10:43.539Z,98818.25
2023-03-29T05:11:46.488Z,98825.34
2023-03-29T05:12:54.408Z,98827.31
2023-03-29T05:14:02.606Z,98830.72
2023-03-29T05:15:06.369Z,98823.19
2023-03-29T05:16:11.577Z,98826.13
2023-03-29T05:17:14.665Z,98831.06
2023-03-29T05:18:18.156Z,98823.97
2023-03-29T05:19:23.834Z,98816.16
2023-03-29T05:20:26.988Z,98818.38
2023-03-29T05:21:30.348Z,98826.22
2023-03-29T05:22:33.219Z,98822.56
2023-03-29T05:23:36.419Z,98822.34
2023-03-29T05:24:39.487Z,98819.19
2023-03-29T05:25:44.199Z,98823.62
2023-03-29T05:26:48.054Z,98815.78
2023-03-29T05:27:50.920Z,98812.87
2023-03-29T05:28:54.447Z,98813.63
2023-03-29T05:29:57.751Z,98810.44
2023-03-29T05:31:02.907Z,98807.53
2023-03-29T05:32:07.513Z,98808.31
2023-03-29T05:33:11.058Z,98804.13
2023-03-29T05:34:14.131Z,98808.31
2023-03-29T05:35:17.256Z,98805.88
2023-03-29T05:36:20.247Z,98810.06
2023-03-29T05:37:23.630Z,98807.38
2023-03-29T05:38:26.720Z,98807.38
2023-03-29T05:39:30.064Z,98819.91
2023-03-29T05:40:33.906Z,98811.31
2023-03-29T05:41:37.163Z,98808.16
2023-03-29T05:42:40.345Z,98812.63
2023-03-29T05:43:43.368Z,98807.72
2023-03-29T05:44:46.401Z,98815.56
2023-03-29T05:45:49.592Z,98812.41
2023-03-29T05:46:52.930Z,98811.44
2023-03-29T05:47:57.809Z,98808.75
2023-03-29T05:49:01.670Z,98818.31
2023-03-29T05:50:05.413Z,98811.22
2023-03-29T05:51:08.651Z,98809.00
2023-03-29T05:52:11.972Z,98816.88
2023-03-29T05:53:15.604Z,98827.19
2023-03-29T05:54:18.514Z,98819.34
2023-03-29T05:55:21.481Z,98830.38
2023-03-29T05:56:25.099Z,98826.00
2023-03-29T05:57:28.434Z,98830.16
2023-03-29T05:58:31.486Z,98829.66
2023-03-29T05:59:34.440Z,98828.72
2023-03-29T06:00:38.836Z,98830.69
2023-03-29T06:01:42.142Z,98823.81
2023-03-29T06:02:45.154Z,98824.31
2023-03-29T06:03:48.391Z,98827.25
2023-03-29T06:04:52.101Z,98824.31
2023-03-29T06:06:05.229Z,98823.81
2023-03-29T06:07:08.731Z,98820.91
2023-03-29T06:08:12.280Z,98829.25
2023-03-29T06:09:15.878Z,98830.25
2023-03-29T06:10:20.743Z,98828.81
2023-03-29T06:11:24.669Z,98821.91
2023-03-29T06:12:28.341Z,98829.03
2023-03-29T06:13:33.763Z,98825.81
2023-03-29T06:14:37.523Z,98823.12
2023-03-29T06:15:40.654Z,98826.56
2023-03-29T06:16:43.600Z,98819.97
2023-03-29T06:17:47.540Z,98822.69
2023-03-29T06:18:50.893Z,98827.81
2023-03-29T06:19:53.912Z,98822.69
2023-03-29T06:20:56.843Z,98824.16
2023-03-29T06:22:00.039Z,98832.50
2023-03-29T06:23:03.032Z,98827.37
2023-03-29T06:24:07.096Z,98827.09
2023-03-29T06:25:14.513Z,98829.56
2023-03-29T06:26:18.147Z,98833.25
2023-03-29T06:27:21.402Z,98834.72
2023-03-29T06:28:25.073Z,98833.97
2023-03-29T06:29:28.051Z,98834.97
2023-03-29T06:30:31.027Z,98837.66
2023-03-29T06:31:36.635Z,98834.97
2023-03-29T06:32:40.005Z,98838.62
2023-03-29T06:33:43.853Z,98839.88
2023-03-29T06:34:46.828Z,98836.19
2023-03-29T06:35:50.368Z,98839.12
2023-03-29T06:36:55.183Z,98837.88
2023-03-29T06:37:58.444Z,98835.91
2023-03-29T06:39:01.424Z,98844.25
2023-03-29T06:40:07.657Z,98840.53
2023-03-29T06:41:13.848Z,98842.75
2023-03-29T06:42:21.650Z,98840.25
2023-03-29T06:43:24.987Z,98848.09
2023-03-29T06:44:28.820Z,98838.72
2023-03-29T06:45:34.723Z,98842.87
2023-03-29T06:46:37.881Z,98838.41
2023-03-29T06:47:41.578Z,98839.62
2023-03-29T06:48:45.327Z,98837.41
2023-03-29T06:49:48.490Z,98836.41
2023-03-29T06:50:52.544Z,98842.53
2023-03-29T06:51:57.376Z,98836.13
2023-03-29T06:53:00.787Z,98844.44
2023-03-29T06:54:04.654Z,98844.19
2023-03-29T06:55:08.170Z,98845.38
2023-03-29T06:56:11.454Z,98841.69
2023-03-29T06:57:14.734Z,98847.06
2023-03-29T06:58:17.833Z,98841.87
2023-03-29T06:59:21.015Z,98847.03
2023-03-29T07:00:30.151Z,98846.03
2023-03-29T07:01:34.999Z,98853.38
2023-03-29T07:02:38.010Z,98856.75
2023-03-29T07:03:41.544Z,98852.53
2023-03-29T07:04:44.792Z,98847.59
2023-03-29T07:05:47.981Z,98852.97
2023-03-29T07:07:01.800Z,98853.19
2023-03-29T07:08:07.838Z,98854.91
2023-03-29T07:09:13.401Z,98864.44
2023-03-29T07:10:16.860Z,98858.75
2023-03-29T07:11:20.635Z,98865.81
2023-03-29T07:12:24.154Z,98867.59
2023-03-29T07:13:27.837Z,98865.81
2023-03-29T07:14:31.121Z,98870.25
2023-03-29T07:15:34.162Z,98879.06
2023-03-29T07:16:37.970Z,98867.19
2023-03-29T07:17:41.069Z,98873.59
2023-03-29T07:18:45.012Z,98867.16
2023-03-29T07:19:49.279Z,98876.72
2023-03-29T07:20:52.691Z,98882.31
2023-03-29T07:21:56.411Z,98884.25
2023-03-29T07:23:00.497Z,98878.31
2023-03-29T07:24:05.090Z,98884.19
2023-03-29T07:25:12.484Z,98890.81
2023-03-29T07:26:28.768Z,98886.34
2023-03-29T07:27:32.858Z,98893.41
2023-03-29T07:28:37.749Z,98900.25
2023-03-29T07:29:40.658Z,98892.84
2023-03-29T07:30:43.739Z,98885.66
2023-03-29T07:31:46.697Z,98884.84
2023-03-29T07:32:51.611Z,98894.97
2023-03-29T07:33:54.599Z,98889.28
2023-03-29T07:34:57.629Z,98889.88
2023-03-29T07:36:02.265Z,98892.06
2023-03-29T07:37:06.762Z,98892.00
2023-03-29T07:38:10.658Z,98888.13
2023-03-29T07:39:14.032Z,98884.91
2023-03-29T07:40:20.034Z,98898.13
2023-03-29T07:41:23.229Z,98891.66
2023-03-29T07:42:26.449Z,98887.91
2023-03-29T07:43:29.517Z,98887.13
2023-03-29T07:44:33.909Z,98890.53
2023-03-29T07:45:37.133Z,98893.44
2023-03-29T07:46:40.272Z,98896.84
2023-03-29T07:47:44.985Z,98900.00
2023-03-29T07:48:48.180Z,98899.62
2023-03-29T07:49:51.564Z,98906.22
2023-03-29T07:50:54.545Z,98900.12
2023-03-29T07:51:58.039Z,98894.03
2023-03-29T07:53:01.624Z,98898.06
2023-03-29T07:54:06.657Z,98904.25
2023-03-29T07:55:11.896Z,98903.66
2023-03-29T07:56:15.035Z,98907.34
2023-03-29T07:57:18.170Z,98905.78
2023-03-29T07:58:22.053Z,98898.09
2023-03-29T07:59:25.159Z,98902.34
2023-03-29T08:00:28.302Z,98911.06
2023-03-29T08:01:31.210Z,98904.09
2023-03-29T08:02:34.690Z,98907.62
2023-03-29T08:03:37.941Z,98904.47
2023-03-29T08:04:41.369Z,98904.91
2023-03-29T08:05:44.277Z,98900.72
2023-03-29T08:06:47.339Z,98902.56
2023-03-29T08:07:50.824Z,98889.94
2023-03-29T08:08:53.815Z,98895.06
2023-03-29T08:09:58.233Z,98901.97
2023-03-29T08:11:01.417Z,98896.75
2023-03-29T08:12:04.894Z,98897.94
2023-03-29T08:13:09.374Z,98898.66
2023-03-29T08:14:12.286Z,98889.69
2023-03-29T08:15:16.608Z,98889.97
2023-03-29T08:16:19.977Z,98895.63
2023-03-29T08:17:23.030Z,98891.34
2023-03-29T08:18:25.915Z,98886.16
2023-03-29T08:19:29.278Z,98888.56
2023-03-29T08:20:32.969Z,98891.91
2023-03-29T08:21:35.956Z,98891.72
2023-03-29T08:22:39.511Z,98890.16
2023-03-29T08:23:42.313Z,98890.72
2023-03-29T08:24:45.219Z,98886.25
2023-03-29T08:25:48.135Z,98887.28
2023-03-29T08:26:51.093Z,98899.53
2023-03-29T08:27:54.443Z,98891.28
2023-03-29T08:28:57.857Z,98888.34
2023-03-29T08:30:00.943Z,98883.66
2023-03-29T08:31:04.276Z,98882.19
2023-03-29T08:32:07.463Z,98890.78
2023-03-29T08:33:10.354Z,98890.59
2023-03-29T08:34:14.005Z,98891.62
2023-03-29T08:35:17.109Z,98892.59
2023-03-29T08:36:20.364Z,98887.34
2023-03-29T08:37:26.087Z,98891.22
2023-03-29T08:38:29.240Z,98890.59
2023-03-29T08:39:33.150Z,98888.00
2023-03-29T08:40:36.966Z,98884.94
2023-03-29T08:41:58.506Z,98885.59
2023-03-29T08:43:16.554Z,98880.03
2023-03-29T08:44:48.411Z,98880.84
2023-03-29T08:46:11.908Z,98879.81
2023-03-29T08:47:21.207Z,98875.28
2023-03-29T08:48:31.195Z,98875.59
2023-03-29T08:49:38.232Z,98874.22
2023-03-29T08:50:53.203Z,98865.84
2023-03-29T08:52:03.929Z,98879.53
2023-03-29T08:53:28.378Z,98873.56
2023-03-29T08:54:59.753Z,98872.28
2023-03-29T08:56:08.969Z,98872.16
2023-03-29T08:57:28.574Z,98871.13
2023-03-29T08:58:33.985Z,98869.00
2023-03-29T08:59:38.011Z,98874.16
2023-03-29T09:00:51.502Z,98867.22
2023-03-29T09:01:57.741Z,98867.66
2023-03-29T09:03:03.049Z,98868.22
2023-03-29T09:04:17.365Z,98862.75
2023-03-29T09:05:28.293Z,98862.34
2023-03-29T09:06:31.975Z,98858.22
2023-03-29T09:07:35.222Z,98866.47
2023-03-29T09:08:41.766Z,98861.66
2023-03-29T09:09:45.291Z,98860.72
2023-03-29T09:11:12.946Z,98861.25
2023-03-29T09:12:24.332Z,98860.91
2023-03-29T09:13:46.770Z,98863.03
2023-03-29T09:15:08.821Z,98858.19
2023-03-29T09:16:30.616Z,98852.56
2023-03-29T09:18:24.453Z,98852.00
2023-03-29T09:19:43.647Z,98851.06
2023-03-29T09:21:08.467Z,98848.03
2023-03-29T09:22:29.885Z,98850.91
2023-03-29T09:23:53.169Z,98848.34
2023-03-29T09:25:06.986Z,98852.34
2023-03-29T09:26:20.595Z,98846.19
2023-03-29T09:28:00.497Z,98844.41
2023-03-29T09:29:50.450Z,98842.94
2023-03-29T09:31:08.073Z,98835.69
2023-03-29T09:32:27.824Z,98838.59
2023-03-29T09:33:52.459Z,98837.56
2023-03-29T09:35:20.525Z,98835.37
2023-03-29T09:36:42.427Z,98836.72
2023-03-29T09:37:48.358Z,98841.28
2023-03-29T09:38:54.654Z,98839.09
2023-03-29T09:39:58.314Z,98834.69
2023-03-29T09:41:34.093Z,98837.56
2023-03-29T09:42:40.057Z,98836.50
2023-03-29T09:43:45.075Z,98843.72
2023-03-29T09:44:52.927Z,98837.41
2023-03-29T09:46:01.293Z,98839.09
2023-03-29T09:47:09.670Z,98834.94
2023-03-29T09:48:15.213Z,98834.06
2023-03-29T09:49:31.726Z,98834.09
2023-03-29T09:50:41.706Z,98832.47
2023-03-29T09:51:49.518Z,98831.56
2023-03-29T09:52:53.052Z,98825.94
2023-03-29T09:53:57.670Z,98836.88
2023-03-29T09:55:03.999Z,98823.53
2023-03-29T09:56:08.754Z,98824.28
2023-03-29T09:57:17.597Z,98825.38
2023-03-29T09:58:24.317Z,98825.00
2023-03-29T09:59:27.573Z,98823.00
2023-03-29T10:00:31.224Z,98824.66
2023-03-29T10:01:40.029Z,98821.91
2023-03-29T10:02:50.909Z,98821.19
2023-03-29T10:03:54.417Z,98818.09
2023-03-29T10:05:01.063Z,98818.81
2023-03-29T10:06:06.806Z,98815.00
2023-03-29T10:07:19.145Z,98814.81
2023-03-29T10:08:37.011Z,98816.44
2023-03-29T10:09:45.790Z,98810.25
2023-03-29T10:10:48.961Z,98818.66
2023-03-29T10:11:55.563Z,98819.00
2023-03-29T10:13:10.762Z,98813.34
2023-03-29T10:14:18.862Z,98817.38
2023-03-29T10:16:42.637Z,98810.06
2023-03-29T10:17:46.427Z,98814.25
2023-03-29T10:18:50.588Z,98818.06
2023-03-29T10:20:01.583Z,98813.72
2023-03-29T10:21:07.662Z,98809.50
2023-03-29T10:22:24.969Z,98805.34
2023-03-29T10:23:34.511Z,98810.59
2023-03-29T10:24:37.406Z,98806.78
2023-03-29T10:25:43.380Z,98808.75
2023-03-29T10:26:47.413Z,98802.56
2023-03-29T10:27:50.341Z,98803.66
2023-03-29T10:28:55.182Z,98802.94
2023-03-29T10:30:08.586Z,98803.28
2023-03-29T10:31:19.750Z,98803.84
2023-03-29T10:32:23.195Z,98794.53
2023-03-29T10:33:32.000Z,98795.28
2023-03-29T10:34:35.249Z,98797.63
2023-03-29T10:35:42.235Z,98803.47
2023-03-29T10:36:57.848Z,98795.28
2023-03-29T10:38:05.747Z,98791.25
2023-03-29T10:39:13.874Z,98793.09
2023-03-29T10:40:28.888Z,98787.78
2023-03-29T10:41:35.950Z,98783.22
2023-03-29T10:42:50.402Z,98789.78
2023-03-29T10:43:54.179Z,98789.44
2023-03-29T10:44:59.963Z,98789.97
2023-03-29T10:46:11.170Z,98791.25
2023-03-29T10:47:20.566Z,98784.69
2023-03-29T10:48:30.952Z,98791.41
2023-03-29T10:49:41.990Z,98782.81
2023-03-29T10:50:51.698Z,98787.00
2023-03-29T10:51:54.626Z,98779.34
2023-03-29T10:52:57.519Z,98768.38
2023-03-29T10:54:01.694Z,98774.31
2023-03-29T10:55:05.520Z,98770.62
2023-03-29T10:56:37.315Z,98783.91
2023-03-29T10:58:22.467Z,98781.47
2023-03-29T10:59:30.554Z,98772.03
2023-03-29T11:00:55.205Z,98778.28
2023-03-29T11:02:39.838Z,98778.47
2023-03-29T11:04:08.122Z,98776.06
2023-03-29T11:05:52.237Z,98769.78
2023-03-29T11:07:31.827Z,98772.97
2023-03-29T11:09:02.543Z,98773.59
2023-03-29T11:10:14.877Z,98770.22
2023-03-29T11:11:33.134Z,98775.88
2023-03-29T11:12:47.882Z,98768.63
2023-03-29T11:14:19.712Z,98770.09
2023-03-29T11:15:41.148Z,98759.37
2023-03-29T11:17:05.422Z,98761.09
2023-03-29T11:18:45.643Z,98765.91
2023-03-29T11:20:03.657Z,98766.13
2023-03-29T11:21:40.842Z,98763.38
2023-03-29T11:23:01.953Z,98769.13
2023-03-29T11:24:40.029Z,98767.41
2023-03-29T11:26:05.790Z,98764.34
2023-03-29T11:27:30.078Z,98761.22
2023-03-29T11:28:45.923Z,98758.09
2023-03-29T11:30:00.841Z,98763.34
2023-03-29T11:32:05.773Z,98765.22
2023-03-29T11:33:33.952Z,98752.97
2023-03-29T11:35:01.826Z,98757.00
2023-03-29T11:36:17.878Z,98748.84
2023-03-29T11:37:27.145Z,98747.41
2023-03-29T11:38:40.059Z,98750.84
2023-03-29T11:40:30.146Z,98754.16
2023-03-29T11:41:41.959Z,98740.56
2023-03-29T11:42:48.796Z,98739.78
2023-03-29T11:44:13.581Z,98734.38
2023-03-29T11:45:26.499Z,98736.03
2023-03-29T11:46:34.989Z,98736.09
2023-03-29T11:47:41.439Z,98735.56
2023-03-29T11:49:23.696Z,98737.22
2023-03-29T11:50:43.917Z,98736.03
2023-03-29T11:51:54.662Z,98730.03
2023-03-29T11:53:07.352Z,98726.41
2023-03-29T11:54:34.793Z,98735.94
2023-03-29T11:55:40.235Z,98731.31
2023-03-29T11:57:12.543Z,98732.12
2023-03-29T11:58:35.428Z,98728.94
2023-03-29T11:59:48.920Z,98726.78
2023-03-29T12:00:58.208Z,98717.41
2023-03-29T12:02:22.932Z,98716.06
2023-03-29T12:03:41.031Z,98718.81
2023-03-29T12:04:50.327Z,98722.13
2023-03-29T12:06:04.661Z,98718.44
2023-03-29T12:07:15.985Z,98711.34
2023-03-29T12:08:32.357Z,98705.84
2023-03-29T12:09:51.807Z,98707.50
2023-03-29T12:11:28.795Z,98699.25
2023-03-29T12:12:43.817Z,98706.47
2023-03-29T12:13:54.004Z,98706.56
2023-03-29T12:15:07.380Z,98700.50
2023-03-29T12:16:28.916Z,98704.22
2023-03-29T12:17:47.251Z,98697.00
2023-03-29T12:18:54.845Z,98699.19
2023-03-29T12:20:12.668Z,98696.75
2023-03-29T12:21:22.792Z,98692.50
2023-03-29T12:22:26.037Z,98693.97
2023-03-29T12:23:33.088Z,98687.75
2023-03-29T12:24:42.089Z,98687.03
2023-03-29T12:26:02.563Z,98687.19
2023-03-29T12:27:23.187Z,98684.91
2023-03-29T12:28:37.748Z,98687.41
2023-03-29T12:29:48.977Z,98692.91
2023-03-29T12:31:18.223Z,98688.22
2023-03-29T12:32:36.130Z,98685.69
2023-03-29T12:33:53.584Z,98687.00
2023-03-29T12:35:15.221Z,98679.94
2023-03-29T12:36:45.281Z,98677.44
2023-03-29T12:38:26.350Z,98674.50
2023-03-29T12:39:31.686Z,98662.91
2023-03-29T12:40:46.678Z,98663.44
2023-03-29T12:41:52.191Z,98662.91
2023-03-29T12:43:04.217Z,98665.28
2023-03-29T12:44:10.710Z,98674.47
2023-03-29T12:45:21.109Z,98667.87
2023-03-29T12:46:27.523Z,98670.41
2023-03-29T12:47:43.392Z,98669.81
2023-03-29T12:48:51.359Z,98670.81
2023-03-29T12:49:59.937Z,98665.78
2023-03-29T12:51:08.008Z,98669.78
2023-03-29T12:52:23.402Z,98670.94
2023-03-29T12:53:46.278Z,98667.78
2023-03-29T12:54:58.091Z,98667.13
2023-03-29T12:56:01.397Z,98667.47
2023-03-29T12:57:38.735Z,98668.13
2023-03-29T12:58:52.123Z,98667.97
2023-03-29T12:59:55.288Z,98660.69
2023-03-29T13:01:07.861Z,98660.53
2023-03-29T13:02:14.215Z,98668.63
2023-03-29T13:03:42.802Z,98669.41
2023-03-29T13:04:55.402Z,98663.66
2023-03-29T13:06:05.645Z,98659.16
2023-03-29T13:07:28.026Z,98663.59
2023-03-29T13:08:46.560Z,98663.69
2023-03-29T13:09:59.719Z,98664.75
2023-03-29T13:11:04.044Z,98656.03
2023-03-29T13:12:16.232Z,98651.84
2023-03-29T13:13:26.124Z,98647.22
2023-03-29T13:14:34.998Z,98652.16
2023-03-29T13:15:38.200Z,98649.25
2023-03-29T13:16:42.170Z,98654.81
2023-03-29T13:17:45.383Z,98639.53
2023-03-29T13:19:10.200Z,98649.47
2023-03-29T13:20:43.713Z,98648.59
2023-03-29T13:22:11.344Z,98643.75
2023-03-29T13:23:52.857Z,98644.22
2023-03-29T13:25:19.246Z,98645.84
2023-03-29T13:26:46.242Z,98647.78
2023-03-29T13:28:01.731Z,98646.00
2023-03-29T13:29:13.941Z,98645.03